NCAR-RAP Real-Time Weather Data

Output produced by METARs form (23 February 2020  02:05 UTC)
found at http://weather.rap.ucar.edu/surface/
 
KSYR 230154Z 00000KT 10SM FEW250 M02/M07 A3016 RMK AO2 SLP214 T10221072
KSYR 230054Z 30004KT 10SM FEW250 M01/M07 A3016 RMK AO2 SLP215 T10111072
KSYR 222354Z 20004KT 10SM FEW250 03/M07 A3015 RMK AO2 SLP211 4/006 T00281072 10039 20022 55001